Pittsburg, NH

5:28 AM EST on January 28, 2015 (GMT -0500)
Newport State | Change Station
CLOSE
Current Station
Airport
Location: Newport,
Elevation: 928 ft
Nearby Weather Stations

Elev 928 ft 44.89 °N, 72.23 °W | Updated 13 minutes ago

Overcast
Overcast
4 °F
Feels Like -4 °F
N
4
Wind Variable Wind from WNW

Today
High -- | Low -- °F
--% Chance of Precip.
Yesterday
High -- | Low -- °F
Precip. -- in
7:09 AM 4:47 PM
Waxing Gibbous, 63% visible
Pressure 29.91 in
Visibility 4.0 miles
Clouds Mostly Cloudy 2300 ft
Overcast 7500 ft
Windchill -4 °F
Dew Point -1 °F
Humidity 80%
Rainfall 0.00 in
Snow Depth Not available.
UV 0 out of 12
Pollen .10 out of 12
Air Quality Not available.
Flu Activity Not available.
METAR KEFK 281015Z AUTO 30003KT 4SM -SN BKN023 OVC075 M16/M18 A2991 RMK AO2 T11571184

More Conditions Fewer Conditions

Pressure 29.91 in
Visibility 4.0 miles
Clouds Mostly Cloudy 2300 ft
Overcast 7500 ft
Windchill -4 °F
Dew Point -1 °F
Humidity 80%
Rainfall 0.00 in
Snow Depth Not available.
UV 0 out of 12
Pollen .10 out of 12
Air Quality Not available.
Flu Activity Not available.
METAR KEFK 281015Z AUTO 30003KT 4SM -SN BKN023 OVC075 M16/M18 A2991 RMK AO2 T11571184

More Conditions Fewer Conditions

10-Day Weather Forecast

Almanac

Astronomy

Jan. 28, 2015 Rise Set
Actual Time
Civil Twilight
Nautical Twilight
Astronomical Twilight
Moon
Length of Visible Light
Length of Day
Tomorrow will be .
, % of the Moon is Illuminated

Today's Extremes

State Highs State Lows

Community

WunderPhotos

Upload Photos

1,791,121 photos uploaded!

WunderBlogs® & News

Nearby

Air Quality

  Air Quality AQ Index Pollutant
Not available.

Snow Depth

Station Depth Elevation

Earthquake Activity

City Distance Mag. Time & Date
Minimum magnitude displayed is 2.5.

Coastal Water Temperatures

Place Temperature

Nearby Weather Stations